createdAt,value
2024-04-22T00:01:26.625Z,101864.38
2024-04-22T00:03:57.527Z,101860.28
2024-04-22T00:06:25.906Z,101851.56
2024-04-22T00:08:56.486Z,101857.03
2024-04-22T00:11:27.595Z,101855.41
2024-04-22T00:13:58.497Z,101853.88
2024-04-22T00:16:26.693Z,101853.22
2024-04-22T00:18:57.499Z,101848.75
2024-04-22T00:21:28.265Z,101849.44
2024-04-22T00:23:56.477Z,101845.84
2024-04-22T00:26:30.265Z,101846.72
2024-04-22T00:28:58.500Z,101848.38
2024-04-22T00:31:29.337Z,101848.84
2024-04-22T00:33:57.517Z,101842.28
2024-04-22T00:36:28.271Z,101844.19
2024-04-22T00:38:56.512Z,101848.00
2024-04-22T00:41:32.521Z,101843.34
2024-04-22T00:44:00.496Z,101841.03
2024-04-22T00:46:31.313Z,101839.41
2024-04-22T00:48:59.519Z,101833.38
2024-04-22T00:51:30.329Z,101835.13
2024-04-22T00:53:59.522Z,101836.63
2024-04-22T00:56:33.299Z,101843.00
2024-04-22T00:59:01.554Z,101844.66
2024-04-22T01:01:32.347Z,101842.97
2024-04-22T01:04:00.291Z,101841.25
2024-04-22T01:06:31.539Z,101840.88
2024-04-22T01:08:59.007Z,101837.97
2024-04-22T01:11:29.638Z,101844.69
2024-04-22T01:14:03.801Z,101838.84
2024-04-22T01:16:34.609Z,101839.50
2024-04-22T01:19:01.996Z,101837.19
2024-04-22T01:21:35.555Z,101843.69
2024-04-22T01:24:03.172Z,101832.53
2024-04-22T01:26:33.565Z,101829.78
2024-04-22T01:29:01.051Z,101833.81
2024-04-22T01:31:31.622Z,101829.41
2024-04-22T01:33:59.486Z,101828.78
2024-04-22T01:36:30.557Z,101824.59
2024-04-22T01:39:02.563Z,101818.69
2024-04-22T01:41:33.575Z,101811.97
2024-04-22T01:44:01.083Z,101827.19
2024-04-22T01:46:31.761Z,101823.78
2024-04-22T01:48:59.255Z,101817.31
2024-04-22T01:51:29.591Z,101823.00
2024-04-22T01:53:57.047Z,101820.31
2024-04-22T01:56:30.836Z,101815.84
2024-04-22T01:58:59.127Z,101814.84
2024-04-22T02:01:29.635Z,101818.59
2024-04-22T02:03:57.398Z,101823.03
2024-04-22T02:06:28.386Z,101823.22
2024-04-22T02:08:55.601Z,101825.56
2024-04-22T02:11:29.808Z,101824.06
2024-04-22T02:13:57.644Z,101821.53
2024-04-22T02:16:27.435Z,101815.44
2024-04-22T02:18:56.615Z,101813.75
2024-04-22T02:21:30.183Z,101815.03
2024-04-22T02:23:58.630Z,101817.53
2024-04-22T02:26:31.403Z,101812.28
2024-04-22T02:29:00.631Z,101817.94
2024-04-22T02:31:31.050Z,101812.69
2024-04-22T02:33:59.627Z,101814.19
2024-04-22T02:36:29.436Z,101816.72
2024-04-22T02:38:58.650Z,101817.31
2024-04-22T02:41:31.408Z,101815.44
2024-04-22T02:44:00.729Z,101809.59
2024-04-22T02:46:30.537Z,101811.44
2024-04-22T02:48:59.667Z,101808.31
2024-04-22T02:51:29.453Z,101799.28
2024-04-22T02:53:58.643Z,101798.88
2024-04-22T02:56:31.463Z,101801.38
2024-04-22T02:59:00.669Z,101791.06
2024-04-22T03:01:33.986Z,101790.88
2024-04-22T03:04:03.724Z,101796.75
2024-04-22T03:06:33.677Z,101790.69
2024-04-22T03:09:02.684Z,101795.34
2024-04-22T03:11:36.549Z,101791.34
2024-04-22T03:14:05.736Z,101795.13
2024-04-22T03:16:35.528Z,101787.56
2024-04-22T03:19:04.680Z,101789.25
2024-04-22T03:21:34.502Z,101793.47
2024-04-22T03:24:04.726Z,101792.63
2024-04-22T03:26:37.482Z,101792.63
2024-04-22T03:29:06.732Z,101787.81
2024-04-22T03:31:36.535Z,101796.84
2024-04-22T03:34:05.722Z,101790.34
2024-04-22T03:36:35.485Z,101789.28
2024-04-22T03:39:07.719Z,101784.03
2024-04-22T03:41:40.496Z,101783.81
2024-04-22T03:44:12.716Z,101781.06
2024-04-22T03:46:58.396Z,101778.13
2024-04-22T03:49:41.769Z,101786.13
2024-04-22T03:52:11.555Z,101784.44
2024-04-22T03:54:43.755Z,101777.50
2024-04-22T03:57:16.522Z,101771.41
2024-04-22T03:59:48.722Z,101773.75
2024-04-22T04:02:15.887Z,101769.94
2024-04-22T04:04:47.814Z,101771.66
2024-04-22T04:07:14.918Z,101775.44
2024-04-22T04:09:46.769Z,101773.94
2024-04-22T04:12:16.901Z,101767.44
2024-04-22T04:14:47.879Z,101769.31
2024-04-22T04:17:15.830Z,101778.56
2024-04-22T04:19:46.898Z,101768.06
2024-04-22T04:22:14.832Z,101766.81
2024-04-22T04:24:45.920Z,101776.69
2024-04-22T04:27:17.789Z,101777.09
2024-04-22T04:29:48.875Z,101778.16
2024-04-22T04:32:16.795Z,101778.75
2024-04-22T04:34:47.932Z,101769.75
2024-04-22T04:37:14.934Z,101763.84
2024-04-22T04:39:46.793Z,101776.66
2024-04-22T04:42:16.911Z,101766.78
2024-04-22T04:44:48.783Z,101771.63
2024-04-22T04:47:16.015Z,101774.31
2024-04-22T04:49:46.991Z,101776.81
2024-04-22T04:52:14.883Z,101776.38
2024-04-22T04:54:47.786Z,101779.53
2024-04-22T04:57:18.379Z,101777.19
2024-04-22T04:59:48.818Z,101776.28
2024-04-22T05:02:16.366Z,101785.03
2024-04-22T05:04:46.835Z,101773.19
2024-04-22T05:07:15.638Z,101771.25
2024-04-22T05:09:47.049Z,101774.97
2024-04-22T05:12:14.829Z,101776.78
2024-04-22T05:14:48.596Z,101778.56
2024-04-22T05:17:16.925Z,101776.56
2024-04-22T05:19:48.026Z,101779.03
2024-04-22T05:22:16.856Z,101779.38
2024-04-22T05:24:47.970Z,101776.19
2024-04-22T05:27:15.853Z,101776.59
2024-04-22T05:29:51.805Z,101768.06
2024-04-22T05:32:19.899Z,101772.19
2024-04-22T05:35:06.878Z,101769.09
2024-04-22T05:37:36.940Z,101766.56
2024-04-22T05:40:08.960Z,101763.41
2024-04-22T05:42:39.872Z,101763.19
2024-04-22T05:45:13.725Z,101766.63
2024-04-22T05:47:43.939Z,101766.94
2024-04-22T05:50:15.054Z,101764.03
2024-04-22T05:52:44.705Z,101763.84
2024-04-22T05:55:13.395Z,101763.19
2024-04-22T05:57:45.944Z,101763.66
2024-04-22T06:00:18.028Z,101763.22
2024-04-22T06:02:48.971Z,101762.56
2024-04-22T06:05:20.311Z,101761.25
2024-04-22T06:07:50.934Z,101766.50
2024-04-22T06:10:19.145Z,101765.91
2024-04-22T06:12:50.036Z,101763.75
2024-04-22T06:15:21.013Z,101759.84
2024-04-22T06:17:51.953Z,101761.41
2024-04-22T06:20:20.058Z,101757.69
2024-04-22T06:22:50.997Z,101758.50
2024-04-22T06:25:19.500Z,101752.75
2024-04-22T06:27:51.934Z,101761.84
2024-04-22T06:30:23.074Z,101753.34
2024-04-22T06:32:54.028Z,101751.47
2024-04-22T06:35:23.405Z,101751.13
2024-04-22T06:37:53.975Z,101749.69
2024-04-22T06:40:22.740Z,101744.41
2024-04-22T06:42:53.713Z,101741.13
2024-04-22T06:45:24.938Z,101747.50
2024-04-22T06:47:55.122Z,101741.41
2024-04-22T06:50:23.946Z,101737.00
2024-04-22T06:52:54.623Z,101737.94
2024-04-22T06:55:25.889Z,101745.34
2024-04-22T06:57:56.098Z,101739.84
2024-04-22T07:00:27.990Z,101742.22
2024-04-22T07:02:58.382Z,101741.28
2024-04-22T07:05:27.020Z,101744.97
2024-04-22T07:07:57.506Z,101744.13
2024-04-22T07:10:25.978Z,101748.25
2024-04-22T07:12:56.097Z,101747.97
2024-04-22T07:15:28.006Z,101739.16
2024-04-22T07:17:58.201Z,101747.63
2024-04-22T07:20:27.006Z,101743.16
2024-04-22T07:22:57.099Z,101736.31
2024-04-22T07:25:27.004Z,101739.97
2024-04-22T07:28:00.243Z,101733.81
2024-04-22T07:30:31.994Z,101737.97
2024-04-22T07:33:02.819Z,101735.63
2024-04-22T07:35:33.006Z,101730.88
2024-04-22T07:38:06.041Z,101732.88
2024-04-22T07:40:36.092Z,101734.78
2024-04-22T07:43:06.329Z,101727.78
2024-04-22T07:45:37.389Z,101735.03
2024-04-22T07:48:09.139Z,101731.44
2024-04-22T07:50:37.488Z,101739.78
2024-04-22T07:53:09.298Z,101730.13
2024-04-22T07:55:38.698Z,101730.19
2024-04-22T07:58:09.057Z,101740.81
2024-04-22T08:00:40.290Z,101737.59
2024-04-22T08:03:11.160Z,101731.75
2024-04-22T08:05:40.149Z,101731.44
2024-04-22T08:08:12.075Z,101739.22
2024-04-22T08:10:40.613Z,101738.38
2024-04-22T08:13:11.047Z,101739.34
2024-04-22T08:15:43.845Z,101735.91
2024-04-22T08:18:15.980Z,101730.34
2024-04-22T08:20:45.091Z,101731.53
2024-04-22T08:23:14.848Z,101724.19
2024-04-22T08:25:43.921Z,101721.56
2024-04-22T08:28:14.105Z,101725.22
2024-04-22T08:30:45.297Z,101734.75
2024-04-22T08:33:16.153Z,101731.66
2024-04-22T08:35:48.338Z,101730.56
2024-04-22T08:38:19.125Z,101733.63
2024-04-22T08:40:47.590Z,101733.47
2024-04-22T08:43:18.132Z,101728.53
2024-04-22T08:45:49.297Z,101731.53
2024-04-22T08:48:20.116Z,101725.63
2024-04-22T08:50:51.524Z,101727.06
2024-04-22T08:53:21.397Z,101720.44
2024-04-22T08:55:50.196Z,101722.44
2024-04-22T08:58:20.342Z,101723.22
2024-04-22T09:00:52.155Z,101735.38
2024-04-22T09:03:22.363Z,101730.88
2024-04-22T09:05:51.173Z,101736.63
2024-04-22T09:08:21.811Z,101729.59
2024-04-22T09:11:27.296Z,101735.94
2024-04-22T09:13:48.605Z,101729.06
2024-04-22T09:16:20.229Z,101737.28
2024-04-22T09:18:50.413Z,101732.78
2024-04-22T09:21:18.319Z,101730.44
2024-04-22T09:23:48.258Z,101736.19
2024-04-22T09:26:16.825Z,101732.06
2024-04-22T09:28:49.995Z,101733.88
2024-04-22T09:31:23.190Z,101730.34
2024-04-22T09:33:54.794Z,101724.81
2024-04-22T09:36:25.168Z,101728.38
2024-04-22T09:38:58.286Z,101737.44
2024-04-22T09:41:30.256Z,101731.72
2024-04-22T09:44:06.621Z,101734.81
2024-04-22T09:46:45.297Z,101738.25
2024-04-22T09:49:18.587Z,101732.28
2024-04-22T09:51:47.867Z,101732.34
2024-04-22T09:54:19.200Z,101733.75
2024-04-22T09:56:48.706Z,101732.13
2024-04-22T09:59:22.300Z,101720.75
2024-04-22T10:01:53.472Z,101721.88
2024-04-22T10:04:24.241Z,101717.34
2024-04-22T10:06:52.330Z,101720.44
2024-04-22T10:09:24.263Z,101713.13
2024-04-22T10:11:53.717Z,101711.00
2024-04-22T10:14:25.218Z,101713.03
2024-04-22T10:17:01.439Z,101699.97
2024-04-22T10:19:32.970Z,101707.97
2024-04-22T10:22:02.352Z,101699.69
2024-04-22T10:24:34.276Z,101696.16
2024-04-22T10:27:09.977Z,101693.28
2024-04-22T10:29:45.265Z,101685.72
2024-04-22T10:32:16.958Z,101691.38
2024-04-22T10:34:48.319Z,101678.81
2024-04-22T10:37:16.494Z,101684.78
2024-04-22T10:39:47.304Z,101680.94
2024-04-22T10:42:17.128Z,101673.88
2024-04-22T10:44:48.218Z,101679.16
2024-04-22T10:47:20.327Z,101677.97
2024-04-22T10:49:51.182Z,101676.06
2024-04-22T10:52:19.535Z,101660.91
2024-04-22T10:54:53.240Z,101663.41
2024-04-22T10:57:21.418Z,101667.75
2024-04-22T10:59:52.431Z,101661.22
2024-04-22T11:02:25.438Z,101659.06
2024-04-22T11:04:55.546Z,101655.28
2024-04-22T11:07:25.338Z,101652.88
2024-04-22T11:09:56.845Z,101656.53
2024-04-22T11:12:28.268Z,101652.53
2024-04-22T11:15:01.264Z,101644.03
2024-04-22T11:17:32.467Z,101643.91
2024-04-22T11:20:13.292Z,101646.78
2024-04-22T11:22:41.541Z,101636.22
2024-04-22T11:25:13.350Z,101634.88
2024-04-22T11:27:41.503Z,101634.88
2024-04-22T11:30:13.344Z,101626.56
2024-04-22T11:32:44.518Z,101625.00
2024-04-22T11:35:16.349Z,101634.63
2024-04-22T11:37:44.567Z,101618.75
2024-04-22T11:40:14.609Z,101620.69
2024-04-22T11:42:43.344Z,101613.50
2024-04-22T11:45:13.747Z,101616.78
2024-04-22T11:47:45.621Z,101617.06
2024-04-22T11:50:15.620Z,101606.75
2024-04-22T11:52:44.390Z,101611.72
2024-04-22T11:55:14.786Z,101607.69
2024-04-22T11:57:43.356Z,101600.47
2024-04-22T12:00:14.326Z,101603.81
2024-04-22T12:02:45.510Z,101601.31
2024-04-22T12:05:17.606Z,101604.88
2024-04-22T12:07:45.587Z,101606.22
2024-04-22T12:10:13.434Z,101601.31
2024-04-22T12:12:44.125Z,101593.66
2024-04-22T12:15:14.463Z,101590.50
2024-04-22T12:17:48.242Z,101592.13
2024-04-22T12:20:16.373Z,101593.28
2024-04-22T12:22:47.276Z,101600.53
2024-04-22T12:25:14.960Z,101610.72
2024-04-22T12:27:45.375Z,101615.72
2024-04-22T12:30:12.943Z,101616.31
2024-04-22T12:32:43.209Z,101610.03
2024-04-22T12:35:14.438Z,101608.31
2024-04-22T12:37:45.219Z,101609.91
2024-04-22T12:40:13.396Z,101611.38
2024-04-22T12:42:44.195Z,101607.38
2024-04-22T12:45:12.293Z,101597.28
2024-04-22T12:47:59.488Z,101598.19
2024-04-22T12:50:49.486Z,101597.44
2024-04-22T12:53:21.435Z,101588.22
2024-04-22T12:55:52.253Z,101594.31
2024-04-22T12:58:21.483Z,101587.97
2024-04-22T13:00:52.267Z,101584.63
2024-04-22T13:03:24.460Z,101583.84
2024-04-22T13:05:57.529Z,101581.88
2024-04-22T13:08:28.478Z,101591.31
2024-04-22T13:10:58.792Z,101591.13
2024-04-22T13:13:29.472Z,101579.19
2024-04-22T13:15:59.604Z,101572.66
2024-04-22T13:18:27.562Z,101571.06
2024-04-22T13:21:00.309Z,101573.88
2024-04-22T13:23:29.452Z,101570.44
2024-04-22T13:25:59.301Z,101578.06
2024-04-22T13:28:28.508Z,101568.81
2024-04-22T13:30:58.253Z,101561.09
2024-04-22T13:33:27.012Z,101546.75
2024-04-22T13:36:01.561Z,101547.44
2024-04-22T13:38:30.084Z,101546.00
2024-04-22T13:41:00.512Z,101539.91
2024-04-22T13:43:29.004Z,101538.50
2024-04-22T13:45:59.325Z,101539.25
2024-04-22T13:48:28.534Z,101535.72
2024-04-22T13:51:01.269Z,101529.09
2024-04-22T13:53:32.218Z,101524.94
2024-04-22T13:56:02.572Z,101534.75
2024-04-22T13:58:31.131Z,101533.53
2024-04-22T14:01:02.544Z,101527.94
2024-04-22T14:03:31.071Z,101526.31
2024-04-22T14:06:06.305Z,101523.25
2024-04-22T14:08:39.536Z,101519.88
2024-04-22T14:11:08.182Z,101520.16
2024-04-22T14:13:39.548Z,101514.00
2024-04-22T14:16:07.724Z,101513.31
2024-04-22T14:18:38.651Z,101516.72
2024-04-22T14:21:08.720Z,101518.72
2024-04-22T14:23:39.559Z,101508.25
2024-04-22T14:26:07.049Z,101504.66
2024-04-22T14:28:41.637Z,101510.25
2024-04-22T14:31:10.108Z,101510.13
2024-04-22T14:33:40.418Z,101505.53
2024-04-22T14:36:11.551Z,101503.91
2024-04-22T14:38:42.687Z,101508.16
2024-04-22T14:41:10.558Z,101496.97
2024-04-22T14:43:40.697Z,101498.72
2024-04-22T14:46:09.576Z,101495.34
2024-04-22T14:48:40.035Z,101497.34
2024-04-22T14:51:11.605Z,101490.44
2024-04-22T14:53:41.803Z,101493.88
2024-04-22T14:56:10.589Z,101492.91
2024-04-22T14:58:40.825Z,101498.19
2024-04-22T15:01:09.630Z,101492.84
2024-04-22T15:03:39.981Z,101492.03
2024-04-22T15:06:11.596Z,101488.81
2024-04-22T15:08:41.738Z,101479.97
2024-04-22T15:11:11.741Z,101479.38
2024-04-22T15:13:41.905Z,101473.66
2024-04-22T15:16:10.597Z,101468.81
2024-04-22T15:18:40.769Z,101477.63
2024-04-22T15:21:14.660Z,101474.03
2024-04-22T15:23:47.012Z,101469.22
2024-04-22T15:26:15.614Z,101472.69
2024-04-22T15:28:50.538Z,101465.38
2024-04-22T15:31:19.731Z,101472.50
2024-04-22T15:33:49.767Z,101467.97
2024-04-22T15:36:21.638Z,101462.19
2024-04-22T15:38:51.885Z,101474.13
2024-04-22T15:41:19.635Z,101464.06
2024-04-22T15:43:50.768Z,101461.44
2024-04-22T15:46:19.671Z,101460.91
2024-04-22T15:48:49.417Z,101465.09
2024-04-22T15:51:21.665Z,101466.88
2024-04-22T15:53:51.213Z,101466.56
2024-04-22T15:56:19.010Z,101462.38
2024-04-22T15:58:49.853Z,101465.72
2024-04-22T16:01:17.871Z,101466.84
2024-04-22T16:03:48.712Z,101459.66
2024-04-22T16:06:16.800Z,101467.75
2024-04-22T16:08:49.667Z,101475.41
2024-04-22T16:11:17.813Z,101458.03
2024-04-22T16:13:47.751Z,101472.69
2024-04-22T16:16:16.187Z,101470.13
2024-04-22T16:18:46.740Z,101472.28
2024-04-22T16:21:17.444Z,101469.72
2024-04-22T16:23:50.724Z,101472.66
2024-04-22T16:26:19.596Z,101476.53
2024-04-22T16:28:49.832Z,101468.28
2024-04-22T16:31:19.186Z,101479.91
2024-04-22T16:33:49.727Z,101471.97
2024-04-22T16:36:17.859Z,101483.97
2024-04-22T16:38:50.795Z,101476.69
2024-04-22T16:41:18.847Z,101469.06
2024-04-22T16:43:49.809Z,101481.44
2024-04-22T16:46:17.855Z,101475.88
2024-04-22T16:48:48.757Z,101483.00
2024-04-22T16:51:16.872Z,101479.47
2024-04-22T16:53:51.253Z,101488.28
2024-04-22T16:56:22.876Z,101481.69
2024-04-22T16:58:53.836Z,101483.97
2024-04-22T17:01:21.986Z,101478.03
2024-04-22T17:03:51.988Z,101486.91
2024-04-22T17:06:20.746Z,101480.81
2024-04-22T17:08:50.898Z,101482.34
2024-04-22T17:11:19.811Z,101492.03
2024-04-22T17:13:52.651Z,101498.25
2024-04-22T17:16:22.553Z,101490.69
2024-04-22T17:18:55.765Z,101485.38
2024-04-22T17:21:23.909Z,101494.00
2024-04-22T17:23:54.772Z,101488.38
2024-04-22T17:26:24.401Z,101489.94
2024-04-22T17:28:58.823Z,101487.56
2024-04-22T17:31:27.344Z,101493.91
2024-04-22T17:33:58.807Z,101497.28
2024-04-22T17:36:26.960Z,101501.63
2024-04-22T17:38:56.915Z,101496.78
2024-04-22T17:41:25.794Z,101495.13
2024-04-22T17:43:59.187Z,101496.53
2024-04-22T17:46:27.804Z,101490.78
2024-04-22T17:48:57.998Z,101487.09
2024-04-22T17:51:27.811Z,101494.84
2024-04-22T17:53:58.027Z,101492.78
2024-04-22T17:56:26.817Z,101493.25
2024-04-22T17:58:59.630Z,101490.78
2024-04-22T18:01:28.014Z,101497.34
2024-04-22T18:03:58.858Z,101495.13
2024-04-22T18:06:26.986Z,101490.94
2024-04-22T18:08:57.301Z,101494.16
2024-04-22T18:11:28.957Z,101493.78
2024-04-22T18:14:02.018Z,101496.84
2024-04-22T18:16:30.866Z,101492.19
2024-04-22T18:19:01.583Z,101484.28
2024-04-22T18:21:30.953Z,101483.34
2024-04-22T18:24:03.359Z,101490.84
2024-04-22T18:26:34.104Z,101490.66
2024-04-22T18:29:07.332Z,101496.91
2024-04-22T18:31:35.240Z,101494.66
2024-04-22T18:34:05.914Z,101491.22
2024-04-22T18:36:34.031Z,101497.84
2024-04-22T18:39:07.129Z,101498.75
2024-04-22T18:41:38.054Z,101499.84
2024-04-22T18:44:11.153Z,101500.47
2024-04-22T18:46:40.977Z,101502.88
2024-04-22T18:49:10.884Z,101512.69
2024-04-22T18:51:40.102Z,101511.25
2024-04-22T18:54:09.669Z,101510.28
2024-04-22T18:56:38.897Z,101519.69
2024-04-22T18:59:11.789Z,101522.09
2024-04-22T19:01:40.625Z,101523.41
2024-04-22T19:04:10.765Z,101523.00
2024-04-22T19:06:38.914Z,101532.78
2024-04-22T19:09:10.491Z,101522.53
2024-04-22T19:11:38.202Z,101535.59
2024-04-22T19:14:08.958Z,101532.03
2024-04-22T19:16:40.134Z,101538.81
2024-04-22T19:19:10.936Z,101546.16
2024-04-22T19:21:39.070Z,101545.75
2024-04-22T19:24:10.904Z,101548.28
2024-04-22T19:26:39.395Z,101547.47
2024-04-22T19:29:09.986Z,101551.50
2024-04-22T19:31:41.163Z,101551.75
2024-04-22T19:34:11.979Z,101562.47
2024-04-22T19:36:40.228Z,101556.31
2024-04-22T19:39:12.950Z,101559.13
2024-04-22T19:41:45.151Z,101563.44
2024-04-22T19:44:15.728Z,101558.22
2024-04-22T19:46:47.995Z,101552.09
2024-04-22T19:49:17.743Z,101560.13
2024-04-22T19:51:46.961Z,101559.28
2024-04-22T19:54:16.763Z,101556.91
2024-04-22T19:56:45.944Z,101558.09
2024-04-22T19:59:15.746Z,101562.16
2024-04-22T20:01:48.017Z,101565.97
2024-04-22T20:04:17.817Z,101567.63
2024-04-22T20:06:46.991Z,101569.41
2024-04-22T20:09:16.745Z,101570.09
2024-04-22T20:11:45.010Z,101567.25
2024-04-22T20:14:15.772Z,101571.97
2024-04-22T20:17:00.092Z,101572.41
2024-04-22T20:19:34.600Z,101571.59
2024-04-22T20:22:04.977Z,101572.44
2024-04-22T20:24:35.763Z,101566.38
2024-04-22T20:27:06.002Z,101564.63
2024-04-22T20:29:35.776Z,101574.66
2024-04-22T20:32:08.255Z,101564.91
2024-04-22T20:34:38.926Z,101560.75
2024-04-22T20:37:07.020Z,101562.53
2024-04-22T20:39:37.168Z,101566.91
2024-04-22T20:42:05.125Z,101569.03
2024-04-22T20:44:36.033Z,101570.75
2024-04-22T20:47:07.250Z,101568.31
2024-04-22T20:49:38.061Z,101571.19
2024-04-22T20:52:06.228Z,101570.25
2024-04-22T20:54:36.136Z,101571.41
2024-04-22T20:57:05.030Z,101574.16
2024-04-22T20:59:35.196Z,101568.16
2024-04-22T21:02:03.313Z,101573.47
2024-04-22T21:04:36.089Z,101575.38
2024-04-22T21:07:05.467Z,101568.59
2024-04-22T21:09:36.057Z,101574.13
2024-04-22T21:12:04.675Z,101570.34
2024-04-22T21:14:35.051Z,101566.06
2024-04-22T21:17:03.592Z,101559.78
2024-04-22T21:19:35.867Z,101559.00
2024-04-22T21:22:05.066Z,101555.88
2024-04-22T21:24:34.840Z,101565.69
2024-04-22T21:27:04.069Z,101560.19
2024-04-22T21:29:33.878Z,101564.06
2024-04-22T21:32:04.101Z,101558.00
2024-04-22T21:34:37.033Z,101561.81
2024-04-22T21:37:06.092Z,101563.75
2024-04-22T21:39:35.851Z,101571.50
2024-04-22T21:42:05.098Z,101568.78
2024-04-22T21:44:34.904Z,101567.16
2024-04-22T21:47:04.209Z,101565.44
2024-04-22T21:49:36.939Z,101568.03
2024-04-22T21:52:08.075Z,101564.06
2024-04-22T21:54:38.506Z,101562.56
2024-04-22T21:57:45.340Z,101576.22
2024-04-22T22:00:53.171Z,101576.63
2024-04-22T22:04:00.145Z,101576.25
2024-04-22T22:07:07.927Z,101582.53
2024-04-22T22:09:40.109Z,101577.50
2024-04-22T22:12:09.905Z,101582.13
2024-04-22T22:14:39.130Z,101577.09
2024-04-22T22:17:10.607Z,101584.63
2024-04-22T22:19:39.159Z,101586.75
2024-04-22T22:22:09.047Z,101583.38
2024-04-22T22:24:43.182Z,101580.00
2024-04-22T22:27:14.992Z,101593.25
2024-04-22T22:29:44.147Z,101589.47
2024-04-22T22:32:14.018Z,101587.56
2024-04-22T22:34:42.691Z,101594.28
2024-04-22T22:37:13.148Z,101587.97
2024-04-22T22:39:45.514Z,101597.63
2024-04-22T22:42:17.163Z,101584.63
2024-04-22T22:44:45.678Z,101585.66
2024-04-22T22:47:16.252Z,101594.66
2024-04-22T22:49:44.307Z,101599.31
2024-04-22T22:52:15.169Z,101598.03
2024-04-22T22:54:46.305Z,101593.84
2024-04-22T22:57:17.182Z,101598.25
2024-04-22T22:59:45.325Z,101590.09
2024-04-22T23:02:16.192Z,101583.38
2024-04-22T23:04:44.307Z,101582.97
2024-04-22T23:07:15.423Z,101587.16
2024-04-22T23:09:46.316Z,101576.47
2024-04-22T23:12:17.183Z,101580.66
2024-04-22T23:14:45.323Z,101580.88
2024-04-22T23:17:16.282Z,101580.66
2024-04-22T23:19:44.431Z,101580.66
2024-04-22T23:22:15.195Z,101582.75
2024-04-22T23:24:46.307Z,101576.88
2024-04-22T23:27:20.543Z,101577.72
2024-04-22T23:29:48.330Z,101574.78
2024-04-22T23:32:19.223Z,101560.72
2024-04-22T23:34:47.373Z,101559.69
2024-04-22T23:37:19.221Z,101557.16
2024-04-22T23:39:50.360Z,101559.03
2024-04-22T23:42:21.215Z,101561.53
2024-04-22T23:44:48.776Z,101564.94
2024-04-22T23:47:19.248Z,101559.88
2024-04-22T23:49:48.118Z,101557.78
2024-04-22T23:52:18.026Z,101548.97
2024-04-22T23:54:50.244Z,101539.75
2024-04-22T23:57:20.033Z,101546.84
2024-04-22T23:59:49.244Z,101543.53
